METAR AND TAF INFORMATION
METAR FOR LTFC
ADDS - METARS form results

(1236 UTC 17 November 2018)
Data provider http://aviationweather.gov/metar/data/
 
METAR text: LTFC 171220Z 06014KT 9999 -SHRA SCT030 BKN080 05/03 Q1023 RESHRA
Conditions at: LTFC (SULEYMAN DEMIREL, TR) observed 1220 UTC 17 November 2018
Temperature: 5.0°C (41°F)
Dewpoint: 3.0°C (37°F) [RH = 87%]
Pressure (altimeter): 30.21 inches Hg (1023.0 mb)
Winds: from the ENE (60 degrees) at 16 MPH (14 knots; 7.2 m/s)
Visibility: 6 or more miles (10+ km)
Ceiling: 8000 feet AGL
Clouds: scattered clouds at 3000 feet AGL
broken clouds at 8000 feet AGL
Weather: -SHRA  (light rain showers)

METAR text: LTFC 171150Z 07012KT 8000 SHRA BKN035 BKN100 05/03 Q1023
Conditions at: LTFC (SULEYMAN DEMIREL, TR) observed 1150 UTC 17 November 2018
Temperature: 5.0°C (41°F)
Dewpoint: 3.0°C (37°F) [RH = 87%]
Pressure (altimeter): 30.21 inches Hg (1023.0 mb)
Winds: from the ENE (70 degrees) at 14 MPH (12 knots; 6.2 m/s)
Visibility: 5 miles ( 8 km)
Ceiling: 3500 feet AGL
Clouds: broken clouds at 3500 feet AGL
broken clouds at 10000 feet AGL
Weather: SHRA  (rain showers)

Forecast for: LTFC (SULEYMAN DEMIREL, TR)
Text: TAF LTFC 171040Z 1712/1812 36008KT 9999 -SHRA BKN030 BKN090
Forecast period: 1200 UTC 17 November 2018 to 1200 UTC 18 November 2018
Forecast type: FROM: standard forecast or significant change
Winds: from the N (360 degrees) at 9 MPH (8 knots; 4.1 m/s)
Visibility: 6 or more miles 10+ km)
Ceiling: 3000 feet AGL
Clouds: broken clouds at 3000 feet AGL
broken clouds at 9000 feet AGL
Weather: -SHRA  (light rain showers)
Text: TEMPO 1712/1714 5000 SHRA
Forecast period: 1200 to 1400 UTC 17 November 2018
Forecast type: TEMPORARY: The following changes expected for less than half the time period
Visibility: 3 miles (5 km)
Ceiling: unknown
Clouds: missing
Weather: SHRA  (rain showers)

 AIRPORT MAP

 RUNWAY INFORMATION
Runway 05 Runway length 9843 ft Runway width 148 ft
Runway elevation 2827 ft Runway displaced threshold 0 ft Runway heading 50
Runway 23 Runway length 9843 ft Runway width 148 ft
Runway elevation 2835 ft Runway displaced threshold 0 ft Runway heading 230

 AIRPORT FREQUENCIES
Type GND Name ISPARTA GN Frequency 121.7 MHZ
Type TWR Name ISPARTA TW Frequency 119.2 MHZ

 AIRPORT NEAR NAVIGATION AIDS
Type VOR-DME Name Isparta Frequency 117500 KHZ
Type NDB Name Isparta Frequency 349 KHZ



Copyright © 2011 - 2018 BirgenAir Virtual Airlines. All rights reserved. Developed by Goktug Unver